Time;durP1;ratioP1;P1;durP2;ratioP2;P2;SDS_P1;SDS_P2;PMS_P1;PMS_P2;Temp;Humidity;BMP_temperature;BMP_pressure;BME280_temperature;BME280_humidity;BME280_pressure;Samples;Min_cycle;Max_cycle;Signal;HPM_P1;HPM_P2
2022/10/11 00:08:12;;;;;;;19.30;7.97;;;15.30;99.90;;;;;;21005845;28;20258;-71
2022/10/11 00:18:13;;;;;;;15.43;7.10;;;15.30;99.90;;;;;;21004129;28;20210;-71
2022/10/11 00:28:15;;;;;;;14.50;6.30;;;15.30;99.90;;;;;;21004028;28;20263;-70
2022/10/11 00:38:17;;;;;;;12.43;6.80;;;15.30;99.90;;;;;;21003157;28;20291;-71
2022/10/11 00:48:42;;;;;;;19.07;7.10;;;15.30;99.90;;;;;;21002163;28;20239;-69
2022/10/11 00:58:44;;;;;;;17.97;7.30;;;15.30;99.90;;;;;;21002372;28;20210;-71
2022/10/11 01:08:45;;;;;;;13.30;7.00;;;15.30;99.90;;;;;;21000432;28;20305;-70
2022/10/11 01:18:53;;;;;;;21.13;7.47;;;15.20;99.90;;;;;;21000736;28;20207;-70
2022/10/11 01:29:07;;;;;;;18.43;7.97;;;15.30;99.90;;;;;;20998754;28;20284;-71
2022/10/11 01:39:19;;;;;;;21.13;8.17;;;15.20;99.90;;;;;;20997967;28;20229;-69
2022/10/11 01:49:21;;;;;;;22.90;7.90;;;15.20;99.90;;;;;;20979656;28;20234;-71
2022/10/11 01:59:55;;;;;;;15.50;7.50;;;15.10;99.90;;;;;;20996865;28;20557;-71
2022/10/11 02:10:06;;;;;;;17.67;8.43;;;15.00;99.90;;;;;;20996347;28;20242;-70
2022/10/11 02:20:13;;;;;;;13.47;7.43;;;14.90;99.90;;;;;;20994961;28;20203;-71
2022/10/11 02:30:15;;;;;;;15.77;8.27;;;14.90;99.90;;;;;;20994617;28;20235;-71
2022/10/11 02:40:25;;;;;;;18.10;8.80;;;14.90;99.90;;;;;;20994924;28;20670;-71
2022/10/11 02:50:27;;;;;;;15.67;8.20;;;14.80;99.90;;;;;;20994455;28;20260;-71
2022/10/11 03:00:29;;;;;;;20.10;9.63;;;14.80;99.90;;;;;;20993731;28;20233;-70
2022/10/11 03:10:32;;;;;;;19.90;8.97;;;14.80;99.90;;;;;;20994154;28;20376;-71
2022/10/11 03:20:34;;;;;;;12.80;8.10;;;14.80;99.90;;;;;;20993863;28;20662;-71
2022/10/11 03:30:35;;;;;;;13.00;8.23;;;14.80;99.90;;;;;;20993007;28;20277;-71
2022/10/11 03:40:37;;;;;;;20.03;9.13;;;14.70;99.90;;;;;;21005714;28;20204;-71
2022/10/11 03:50:39;;;;;;;19.57;9.90;;;14.50;99.90;;;;;;21006895;28;20227;-71
2022/10/11 04:00:40;;;;;;;18.17;9.70;;;14.40;99.90;;;;;;21005474;28;20584;-71
2022/10/11 04:10:42;;;;;;;18.73;10.40;;;14.30;99.90;;;;;;21007920;28;20242;-71
2022/10/11 04:20:44;;;;;;;17.73;10.40;;;14.20;99.90;;;;;;21007264;28;20257;-71
2022/10/11 04:30:45;;;;;;;20.50;11.00;;;14.00;99.90;;;;;;21003128;28;20230;-71
2022/10/11 04:40:47;;;;;;;19.13;10.70;;;13.90;99.90;;;;;;21003098;28;20615;-71
2022/10/11 04:50:49;;;;;;;21.70;11.03;;;13.90;99.90;;;;;;21001492;28;20241;-70
2022/10/11 05:00:50;;;;;;;16.50;11.00;;;13.90;99.90;;;;;;21005818;28;20227;-70
2022/10/11 05:11:00;;;;;;;14.07;10.37;;;13.90;99.90;;;;;;21084176;28;20688;-69
2022/10/11 05:21:08;;;;;;;23.33;10.13;;;13.90;99.90;;;;;;21083136;28;20275;-68
2022/10/11 05:31:10;;;;;;;21.93;10.30;;;13.80;99.90;;;;;;21081921;28;20314;-70
2022/10/11 05:41:13;;;;;;;23.93;11.37;;;13.80;99.90;;;;;;21081135;28;20231;-67
2022/10/11 05:51:15;;;;;;;19.07;11.73;;;13.60;99.90;;;;;;21079623;28;20568;-69
2022/10/11 06:01:19;;;;;;;16.40;10.53;;;13.60;99.90;;;;;;21077912;28;20235;-70
2022/10/11 06:11:24;;;;;;;17.03;8.40;;;13.50;99.90;;;;;;21078313;28;20325;-70
2022/10/11 06:21:26;;;;;;;21.17;9.80;;;13.40;99.90;;;;;;21057120;28;20231;-69
2022/10/11 06:31:27;;;;;;;15.90;6.20;;;13.40;99.90;;;;;;20994103;28;20234;-70
2022/10/11 06:41:29;;;;;;;8.70;5.10;;;13.30;99.90;;;;;;20993911;28;20257;-70
2022/10/11 06:51:33;;;;;;;14.83;5.57;;;13.10;99.90;;;;;;20992638;28;20285;-69
2022/10/11 07:01:34;;;;;;;13.13;5.30;;;13.00;99.90;;;;;;20992453;28;20231;-70
2022/10/11 07:11:36;;;;;;;24.50;5.87;;;13.10;99.90;;;;;;21000377;28;20235;-70
2022/10/11 07:21:38;;;;;;;19.23;5.20;;;13.10;99.90;;;;;;21006644;28;20610;-69
2022/10/11 07:31:41;;;;;;;18.50;4.87;;;13.10;99.90;;;;;;21003532;28;20303;-69
2022/10/11 07:41:42;;;;;;;6.90;3.30;;;13.30;99.90;;;;;;21003622;28;20281;-69
2022/10/11 07:51:46;;;;;;;11.37;3.03;;;13.60;99.90;;;;;;21002327;28;20318;-70
2022/10/11 08:01:48;;;;;;;11.27;4.50;;;13.70;99.90;;;;;;21004445;28;20226;-70
2022/10/11 08:11:50;;;;;;;10.20;2.53;;;13.90;99.30;;;;;;21004461;28;20803;-69
2022/10/11 08:21:51;;;;;;;7.63;2.00;;;13.90;98.00;;;;;;21002243;28;20214;-69
2022/10/11 08:31:53;;;;;;;9.37;2.20;;;14.10;97.30;;;;;;21002643;28;20637;-69
2022/10/11 08:42:04;;;;;;;12.37;2.77;;;14.40;96.90;;;;;;21001936;28;20215;-69
2022/10/11 08:52:21;;;;;;;9.00;3.23;;;14.60;96.20;;;;;;21001181;28;20238;-69
2022/10/11 09:02:35;;;;;;;10.20;2.47;;;14.80;95.40;;;;;;20999761;28;20383;-69
2022/10/11 09:13:30;;;;;;;11.17;3.17;;;15.20;94.30;;;;;;20998746;28;20270;-69
2022/10/11 09:23:46;;;;;;;10.50;3.13;;;15.30;94.30;;;;;;20997181;28;20242;-68
2022/10/11 09:33:51;;;;;;;5.07;1.90;;;15.50;93.80;;;;;;20996036;28;20589;-69
2022/10/11 09:43:52;;;;;;;10.67;2.40;;;15.30;92.90;;;;;;20995814;28;20207;-69
2022/10/11 09:54:01;;;;;;;10.33;2.23;;;15.40;93.20;;;;;;20996289;28;20227;-69
2022/10/11 10:04:09;;;;;;;15.33;2.30;;;15.40;93.00;;;;;;20993270;28;20635;-69
2022/10/11 10:14:29;;;;;;;8.93;3.07;;;15.50;92.60;;;;;;20992461;28;20228;-69
2022/10/11 10:24:36;;;;;;;13.40;4.20;;;15.80;92.70;;;;;;20992848;28;20212;-69
2022/10/11 10:34:55;;;;;;;10.13;2.87;;;16.10;92.30;;;;;;20993544;28;20375;-69
2022/10/11 10:44:58;;;;;;;10.83;2.53;;;16.30;92.00;;;;;;20997710;28;20209;-69
2022/10/11 10:55:12;;;;;;;12.03;2.50;;;16.30;92.20;;;;;;21010146;28;20241;-69
2022/10/11 11:05:39;;;;;;;9.27;2.50;;;16.60;91.70;;;;;;21007625;28;20252;-69
2022/10/11 11:16:24;;;;;;;11.30;2.27;;;16.60;91.40;;;;;;21008180;28;20287;-69
2022/10/11 11:26:35;;;;;;;10.83;2.50;;;16.80;91.20;;;;;;20959806;28;20209;-71
2022/10/11 11:36:56;;;;;;;8.77;2.70;;;17.00;90.80;;;;;;21006759;28;20233;-70
2022/10/11 11:47:09;;;;;;;9.50;2.67;;;17.20;90.40;;;;;;21005856;28;20210;-70
2022/10/11 11:57:29;;;;;;;10.73;2.97;;;17.50;90.00;;;;;;21005344;28;20213;-70
2022/10/11 12:08:05;;;;;;;9.97;2.30;;;17.60;89.30;;;;;;21062071;28;20249;-70
2022/10/11 12:18:15;;;;;;;13.87;2.90;;;17.60;88.80;;;;;;21085398;28;20197;-71
2022/10/11 12:28:35;;;;;;;8.30;2.83;;;17.80;88.60;;;;;;21027725;28;20246;-71
2022/10/11 12:38:38;;;;;;;10.10;3.43;;;18.00;87.80;;;;;;21036214;28;20281;-71
2022/10/11 12:48:47;;;;;;;62.57;32.97;;;17.90;87.20;;;;;;21028813;28;20270;-69
2022/10/11 12:58:59;;;;;;;11.73;3.90;;;18.00;87.10;;;;;;20996544;28;20276;-70
2022/10/11 13:09:13;;;;;;;9.17;3.10;;;18.00;87.30;;;;;;21000439;28;20663;-73
2022/10/11 13:19:15;;;;;;;8.17;2.70;;;18.00;87.00;;;;;;21082798;28;20266;-71
2022/10/11 13:29:39;;;;;;;10.13;3.20;;;17.90;87.30;;;;;;21081586;28;20234;-73
2022/10/11 13:39:41;;;;;;;9.47;2.77;;;17.90;87.20;;;;;;21060910;28;20211;-74
2022/10/11 13:49:59;;;;;;;6.47;2.63;;;17.90;87.20;;;;;;21079916;28;20320;-71
2022/10/11 14:00:06;;;;;;;44.80;22.33;;;17.80;87.10;;;;;;21076355;28;20285;-71
2022/10/11 14:10:21;;;;;;;86.00;46.03;;;17.70;86.90;;;;;;21076678;28;20229;-71
2022/10/11 14:20:35;;;;;;;8.97;3.60;;;17.60;87.00;;;;;;21076031;28;20572;-71
2022/10/11 14:30:39;;;;;;;8.00;2.80;;;17.50;87.20;;;;;;21076336;28;20697;-72
2022/10/11 14:40:41;;;;;;;11.97;2.47;;;17.40;87.20;;;;;;21076169;28;20294;-71
2022/10/11 14:50:56;;;;;;;45.80;24.60;;;17.40;87.30;;;;;;21010062;28;20287;-74
2022/10/11 15:00:58;;;;;;;13.07;6.60;;;17.30;87.10;;;;;;20991057;28;20244;-75
2022/10/11 15:11:00;;;;;;;8.73;3.20;;;17.10;86.50;;;;;;21010315;28;20270;-73
2022/10/11 15:21:01;;;;;;;5.27;2.30;;;17.10;87.10;;;;;;21076553;28;20206;-74
2022/10/11 15:31:03;;;;;;;5.50;2.57;;;17.00;87.20;;;;;;21080919;28;20241;-71
2022/10/11 15:41:07;;;;;;;7.37;2.53;;;16.90;87.30;;;;;;21071894;28;20251;-74
2022/10/11 15:51:09;;;;;;;4.97;2.47;;;16.80;87.20;;;;;;21088588;28;20241;-73
2022/10/11 16:01:13;;;;;;;3.83;2.30;;;16.70;86.70;;;;;;21087760;28;20239;-73
2022/10/11 16:11:16;;;;;;;5.63;2.60;;;16.70;87.30;;;;;;21086623;28;20232;-78
2022/10/11 16:21:19;;;;;;;7.50;2.40;;;16.60;87.50;;;;;;21086794;28;20207;-72
2022/10/11 16:31:20;;;;;;;5.43;2.57;;;16.50;87.70;;;;;;21085548;28;20237;-71
2022/10/11 16:41:22;;;;;;;3.80;2.33;;;16.40;88.10;;;;;;21084466;28;20204;-73
2022/10/11 16:51:24;;;;;;;5.50;2.60;;;16.30;88.40;;;;;;21020300;28;20233;-72
2022/10/11 17:01:26;;;;;;;5.23;3.20;;;16.20;88.50;;;;;;21000717;28;20235;-73
2022/10/11 17:11:28;;;;;;;8.47;4.10;;;16.00;88.80;;;;;;21023186;28;20235;-73
2022/10/11 17:21:30;;;;;;;9.23;5.17;;;15.90;89.70;;;;;;21063882;28;20276;-74
2022/10/11 17:31:32;;;;;;;7.83;4.77;;;15.60;90.10;;;;;;20998199;28;20250;-74
2022/10/11 17:41:34;;;;;;;8.47;4.50;;;15.50;90.50;;;;;;20997142;28;20205;-74
2022/10/11 17:51:36;;;;;;;11.37;4.73;;;15.30;90.80;;;;;;20996438;28;20289;-75
2022/10/11 18:01:37;;;;;;;9.00;4.87;;;15.10;91.10;;;;;;20996128;28;20227;-76
2022/10/11 18:11:39;;;;;;;14.60;8.67;;;14.90;91.50;;;;;;21020599;28;20324;-72
2022/10/11 18:21:42;;;;;;;11.67;6.77;;;14.60;92.00;;;;;;21079272;28;20229;-73
2022/10/11 18:31:44;;;;;;;18.27;7.97;;;14.40;92.50;;;;;;21075978;28;20234;-77
2022/10/11 18:41:45;;;;;;;12.40;6.97;;;14.20;92.90;;;;;;21077878;28;20208;-76
2022/10/11 18:51:47;;;;;;;15.60;7.43;;;13.80;93.20;;;;;;21078586;28;20259;-79
2022/10/11 19:01:52;;;;;;;11.00;6.67;;;13.80;93.60;;;;;;21077376;28;20231;-76
2022/10/11 19:11:55;;;;;;;11.30;6.60;;;13.50;94.10;;;;;;21092053;28;20233;-76
2022/10/11 19:21:56;;;;;;;18.13;7.50;;;13.40;94.50;;;;;;21093848;28;20203;-81
2022/10/11 19:32:01;;;;;;;16.07;8.43;;;13.30;94.70;;;;;;21010243;28;20230;-82
2022/10/11 19:42:03;;;;;;;14.77;8.17;;;13.10;94.80;;;;;;21007876;28;20207;-77
2022/10/11 19:52:05;;;;;;;14.63;8.63;;;12.90;95.30;;;;;;21090300;28;20276;-75
2022/10/11 20:02:09;;;;;;;13.03;7.40;;;12.90;95.60;;;;;;21078258;28;20237;-76
2022/10/11 20:12:10;;;;;;;12.97;7.70;;;13.00;95.80;;;;;;21091652;28;20770;-75
2022/10/11 20:22:12;;;;;;;17.07;8.70;;;12.90;95.80;;;;;;21087565;28;20265;-76
2022/10/11 20:32:14;;;;;;;10.63;6.93;;;12.70;95.90;;;;;;21087491;28;20234;-75
2022/10/11 20:42:15;;;;;;;12.17;7.30;;;12.50;96.00;;;;;;21068967;28;20658;-76
2022/10/11 20:52:17;;;;;;;13.17;8.37;;;12.50;96.30;;;;;;21067299;28;20234;-76
2022/10/11 21:02:19;;;;;;;12.90;7.43;;;12.30;96.30;;;;;;21084452;28;20764;-76
2022/10/11 21:12:20;;;;;;;13.73;8.73;;;12.10;96.20;;;;;;21087686;28;20240;-76
2022/10/11 21:22:22;;;;;;;15.03;8.00;;;11.90;96.50;;;;;;21084233;28;20205;-77
2022/10/11 21:32:24;;;;;;;17.27;8.77;;;11.90;96.40;;;;;;21002765;28;20237;-77
2022/10/11 21:42:25;;;;;;;12.03;7.33;;;11.80;96.60;;;;;;20998012;28;20233;-77
2022/10/11 21:52:30;;;;;;;14.83;7.63;;;11.60;96.80;;;;;;20997832;28;20278;-77
2022/10/11 22:02:32;;;;;;;16.37;8.37;;;11.50;96.70;;;;;;20997022;28;20238;-76
2022/10/11 22:12:34;;;;;;;13.87;8.10;;;11.50;96.90;;;;;;20996667;28;20676;-73
2022/10/11 22:22:37;;;;;;;11.23;7.43;;;11.40;96.70;;;;;;20986157;28;20201;-76
2022/10/11 22:32:39;;;;;;;11.80;7.20;;;11.50;97.00;;;;;;20995381;28;20244;-77
2022/10/11 22:42:40;;;;;;;14.30;7.00;;;11.50;97.00;;;;;;20994494;28;20570;-77
2022/10/11 22:52:42;;;;;;;13.60;6.30;;;11.50;96.90;;;;;;20995036;28;20287;-73
2022/10/11 23:02:44;;;;;;;12.80;5.90;;;11.30;96.40;;;;;;20994000;28;20282;-72
2022/10/11 23:12:45;;;;;;;10.70;5.67;;;11.20;96.70;;;;;;20993847;28;20718;-76
2022/10/11 23:22:47;;;;;;;16.10;5.97;;;11.20;96.70;;;;;;20993972;28;20255;-78
2022/10/11 23:32:48;;;;;;;9.70;5.23;;;11.20;97.10;;;;;;20992930;28;20239;-79
2022/10/11 23:42:50;;;;;;;15.87;5.60;;;11.10;97.10;;;;;;20992438;28;20212;-72
2022/10/11 23:52:52;;;;;;;12.87;4.93;;;10.80;97.60;;;;;;20999063;28;20402;-73
